sensor_id;sensor_type;location;lat;lon;timestamp;pressure;altitude;pressure_sealevel;temperature;humidity
20624;BME280;10471;42.736;23.346;2023-03-19T00:00:09;96140.13;;;0.96;100.00
20624;BME280;10471;42.736;23.346;2023-03-19T00:02:36;96134.53;;;0.92;100.00
20624;BME280;10471;42.736;23.346;2023-03-19T00:05:02;96140.31;;;0.88;100.00
20624;BME280;10471;42.736;23.346;2023-03-19T00:07:28;96140.50;;;0.80;100.00
20624;BME280;10471;42.736;23.346;2023-03-19T00:09:53;96132.09;;;0.78;100.00
20624;BME280;10471;42.736;23.346;2023-03-19T00:12:18;96138.50;;;0.75;100.00
20624;BME280;10471;42.736;23.346;2023-03-19T00:14:44;96140.25;;;0.68;100.00
20624;BME280;10471;42.736;23.346;2023-03-19T00:17:09;96136.25;;;0.66;100.00
20624;BME280;10471;42.736;23.346;2023-03-19T00:19:35;96132.88;;;0.59;100.00
20624;BME280;10471;42.736;23.346;2023-03-19T00:22:01;96137.84;;;0.54;100.00
20624;BME280;10471;42.736;23.346;2023-03-19T00:24:26;96134.63;;;0.52;100.00
20624;BME280;10471;42.736;23.346;2023-03-19T00:26:53;96127.06;;;0.51;100.00
20624;BME280;10471;42.736;23.346;2023-03-19T00:29:18;96128.81;;;0.50;100.00
20624;BME280;10471;42.736;23.346;2023-03-19T00:31:44;96128.63;;;0.45;100.00
20624;BME280;10471;42.736;23.346;2023-03-19T00:34:10;96113.47;;;0.42;100.00
20624;BME280;10471;42.736;23.346;2023-03-19T00:36:37;96121.03;;;0.37;100.00
20624;BME280;10471;42.736;23.346;2023-03-19T00:39:03;96125.00;;;0.33;100.00
20624;BME280;10471;42.736;23.346;2023-03-19T00:41:29;96116.53;;;0.18;100.00
20624;BME280;10471;42.736;23.346;2023-03-19T00:43:55;96121.13;;;0.16;100.00
20624;BME280;10471;42.736;23.346;2023-03-19T00:46:21;96114.78;;;0.25;100.00
20624;BME280;10471;42.736;23.346;2023-03-19T00:48:47;96111.00;;;0.21;100.00
20624;BME280;10471;42.736;23.346;2023-03-19T00:51:13;96107.78;;;0.13;100.00
20624;BME280;10471;42.736;23.346;2023-03-19T00:53:40;96111.72;;;0.02;100.00
20624;BME280;10471;42.736;23.346;2023-03-19T00:56:10;96105.38;;;0.11;100.00
20624;BME280;10471;42.736;23.346;2023-03-19T00:58:36;96110.16;;;0.14;100.00
20624;BME280;10471;42.736;23.346;2023-03-19T01:01:09;96103.38;;;0.13;100.00
20624;BME280;10471;42.736;23.346;2023-03-19T01:03:35;96096.63;;;0.12;100.00
20624;BME280;10471;42.736;23.346;2023-03-19T01:06:01;96095.78;;;0.05;100.00
20624;BME280;10471;42.736;23.346;2023-03-19T01:08:26;96104.16;;;0.07;100.00
20624;BME280;10471;42.736;23.346;2023-03-19T01:10:52;96103.38;;;0.13;100.00
20624;BME280;10471;42.736;23.346;2023-03-19T01:13:17;96097.22;;;0.14;100.00
20624;BME280;10471;42.736;23.346;2023-03-19T01:15:43;96094.63;;;0.14;100.00
20624;BME280;10471;42.736;23.346;2023-03-19T01:18:10;96093.84;;;0.14;100.00
20624;BME280;10471;42.736;23.346;2023-03-19T01:20:38;96088.66;;;0.14;100.00
20624;BME280;10471;42.736;23.346;2023-03-19T01:23:04;96093.00;;;0.13;100.00
20624;BME280;10471;42.736;23.346;2023-03-19T01:25:30;96090.03;;;0.10;100.00
20624;BME280;10471;42.736;23.346;2023-03-19T01:27:56;96087.63;;;0.08;100.00
20624;BME280;10471;42.736;23.346;2023-03-19T01:30:22;96092.56;;;0.03;100.00
20624;BME280;10471;42.736;23.346;2023-03-19T01:32:47;96085.00;;;0.02;100.00
20624;BME280;10471;42.736;23.346;2023-03-19T01:35:13;96088.16;;;-0.03;100.00
20624;BME280;10471;42.736;23.346;2023-03-19T01:37:39;96088.56;;;-0.05;100.00
20624;BME280;10471;42.736;23.346;2023-03-19T01:40:05;96082.16;;;-0.16;100.00
20624;BME280;10471;42.736;23.346;2023-03-19T01:42:32;96090.84;;;-0.23;100.00
20624;BME280;10471;42.736;23.346;2023-03-19T01:44:58;96085.44;;;-0.28;100.00
20624;BME280;10471;42.736;23.346;2023-03-19T01:47:32;96081.63;;;-0.32;100.00
20624;BME280;10471;42.736;23.346;2023-03-19T01:49:58;96092.81;;;-0.32;100.00
20624;BME280;10471;42.736;23.346;2023-03-19T01:52:28;96091.56;;;-0.36;100.00
20624;BME280;10471;42.736;23.346;2023-03-19T01:54:57;96089.91;;;-0.50;100.00
20624;BME280;10471;42.736;23.346;2023-03-19T01:57:24;96088.28;;;-0.51;100.00
20624;BME280;10471;42.736;23.346;2023-03-19T01:59:54;96097.94;;;-0.38;100.00
20624;BME280;10471;42.736;23.346;2023-03-19T02:02:26;96097.94;;;-0.38;100.00
20624;BME280;10471;42.736;23.346;2023-03-19T02:05:15;96098.09;;;-0.46;100.00
20624;BME280;10471;42.736;23.346;2023-03-19T02:07:49;96097.94;;;-0.38;100.00
20624;BME280;10471;42.736;23.346;2023-03-19T02:10:17;96097.56;;;-0.35;100.00
20624;BME280;10471;42.736;23.346;2023-03-19T02:12:43;96097.94;;;-0.38;100.00
20624;BME280;10471;42.736;23.346;2023-03-19T02:15:09;96096.94;;;-0.37;100.00
20624;BME280;10471;42.736;23.346;2023-03-19T02:17:35;96095.19;;;-0.37;100.00
20624;BME280;10471;42.736;23.346;2023-03-19T02:20:11;96099.53;;;-0.37;100.00
20624;BME280;10471;42.736;23.346;2023-03-19T02:22:45;96096.59;;;-0.34;100.00
20624;BME280;10471;42.736;23.346;2023-03-19T02:25:23;96095.97;;;-0.36;100.00
20624;BME280;10471;42.736;23.346;2023-03-19T02:27:50;96102.75;;;-0.35;100.00
20624;BME280;10471;42.736;23.346;2023-03-19T02:30:25;96104.13;;;-0.39;100.00
20624;BME280;10471;42.736;23.346;2023-03-19T02:32:51;96094.56;;;-0.39;100.00
20624;BME280;10471;42.736;23.346;2023-03-19T02:35:17;96094.75;;;-0.40;100.00
20624;BME280;10471;42.736;23.346;2023-03-19T02:37:43;96095.09;;;-0.43;100.00
20624;BME280;10471;42.736;23.346;2023-03-19T02:40:13;96101.28;;;-0.44;100.00
20624;BME280;10471;42.736;23.346;2023-03-19T02:42:40;96102.63;;;-0.48;100.00
20624;BME280;10471;42.736;23.346;2023-03-19T02:45:06;96103.03;;;-0.51;100.00
20624;BME280;10471;42.736;23.346;2023-03-19T02:47:33;96102.59;;;-0.55;100.00
20624;BME280;10471;42.736;23.346;2023-03-19T02:49:58;96099.97;;;-0.61;100.00
20624;BME280;10471;42.736;23.346;2023-03-19T02:52:24;96104.53;;;-0.63;100.00
20624;BME280;10471;42.736;23.346;2023-03-19T02:54:49;96103.31;;;-0.67;100.00
20624;BME280;10471;42.736;23.346;2023-03-19T02:57:15;96105.66;;;-0.72;100.00
20624;BME280;10471;42.736;23.346;2023-03-19T02:59:40;96108.84;;;-0.70;100.00
20624;BME280;10471;42.736;23.346;2023-03-19T03:02:06;96113.66;;;-0.67;100.00
20624;BME280;10471;42.736;23.346;2023-03-19T03:04:32;96115.63;;;-0.69;100.00
20624;BME280;10471;42.736;23.346;2023-03-19T03:06:59;96110.44;;;-0.69;100.00
20624;BME280;10471;42.736;23.346;2023-03-19T03:09:25;96122.41;;;-0.68;100.00
20624;BME280;10471;42.736;23.346;2023-03-19T03:11:51;96118.41;;;-0.70;100.00
20624;BME280;10471;42.736;23.346;2023-03-19T03:14:17;96128.19;;;-0.66;100.00
20624;BME280;10471;42.736;23.346;2023-03-19T03:16:43;96123.63;;;-0.64;100.00
20624;BME280;10471;42.736;23.346;2023-03-19T03:19:08;96125.38;;;-0.71;100.00
20624;BME280;10471;42.736;23.346;2023-03-19T03:21:34;96127.72;;;-0.76;100.00
20624;BME280;10471;42.736;23.346;2023-03-19T03:23:59;96123.53;;;-0.77;100.00
20624;BME280;10471;42.736;23.346;2023-03-19T03:26:25;96122.72;;;-0.77;100.00
20624;BME280;10471;42.736;23.346;2023-03-19T03:28:51;96120.09;;;-0.84;100.00
20624;BME280;10471;42.736;23.346;2023-03-19T03:31:17;96122.09;;;-0.86;100.00
20624;BME280;10471;42.736;23.346;2023-03-19T03:33:43;96127.78;;;-0.90;100.00
20624;BME280;10471;42.736;23.346;2023-03-19T03:36:08;96130.56;;;-0.92;100.00
20624;BME280;10471;42.736;23.346;2023-03-19T03:38:34;96126.59;;;-0.94;100.00
20624;BME280;10471;42.736;23.346;2023-03-19T03:40:59;96127.91;;;-0.98;100.00
20624;BME280;10471;42.736;23.346;2023-03-19T03:43:25;96145.41;;;-1.00;100.00
20624;BME280;10471;42.736;23.346;2023-03-19T03:45:50;96138.00;;;-1.03;100.00
20624;BME280;10471;42.736;23.346;2023-03-19T03:48:16;96141.75;;;-1.06;100.00
20624;BME280;10471;42.736;23.346;2023-03-19T03:50:42;96134.41;;;-1.09;100.00
20624;BME280;10471;42.736;23.346;2023-03-19T03:53:08;96138.34;;;-1.13;100.00
20624;BME280;10471;42.736;23.346;2023-03-19T03:55:34;96142.25;;;-1.17;100.00
20624;BME280;10471;42.736;23.346;2023-03-19T03:57:59;96140.25;;;-1.21;100.00
20624;BME280;10471;42.736;23.346;2023-03-19T04:00:25;96137.84;;;-1.23;100.00
20624;BME280;10471;42.736;23.346;2023-03-19T04:02:51;96133.47;;;-1.22;100.00
20624;BME280;10471;42.736;23.346;2023-03-19T04:05:17;96138.19;;;-1.26;100.00
20624;BME280;10471;42.736;23.346;2023-03-19T04:07:43;96134.63;;;-1.25;100.00
20624;BME280;10471;42.736;23.346;2023-03-19T04:10:10;96131.16;;;-1.32;100.00
20624;BME280;10471;42.736;23.346;2023-03-19T04:12:38;96131.16;;;-1.32;100.00
20624;BME280;10471;42.736;23.346;2023-03-19T04:15:05;96130.56;;;-1.33;100.00
20624;BME280;10471;42.736;23.346;2023-03-19T04:17:31;96132.53;;;-1.35;100.00
20624;BME280;10471;42.736;23.346;2023-03-19T04:19:58;96128.34;;;-1.36;100.00
20624;BME280;10471;42.736;23.346;2023-03-19T04:22:23;96119.81;;;-1.37;100.00
20624;BME280;10471;42.736;23.346;2023-03-19T04:24:48;96129.34;;;-1.37;100.00
20624;BME280;10471;42.736;23.346;2023-03-19T04:27:14;96134.53;;;-1.37;100.00
20624;BME280;10471;42.736;23.346;2023-03-19T04:29:39;96136.03;;;-1.43;100.00
20624;BME280;10471;42.736;23.346;2023-03-19T04:32:05;96139.06;;;-1.39;100.00
20624;BME280;10471;42.736;23.346;2023-03-19T04:34:30;96138.88;;;-1.38;100.00
20624;BME280;10471;42.736;23.346;2023-03-19T04:36:56;96141.25;;;-1.36;100.00
20624;BME280;10471;42.736;23.346;2023-03-19T04:39:22;96141.25;;;-1.36;100.00
20624;BME280;10471;42.736;23.346;2023-03-19T04:41:48;96139.50;;;-1.36;100.00
20624;BME280;10471;42.736;23.346;2023-03-19T04:44:14;96141.09;;;-1.35;100.00
20624;BME280;10471;42.736;23.346;2023-03-19T04:46:39;96148.03;;;-1.35;100.00
20624;BME280;10471;42.736;23.346;2023-03-19T04:49:06;96148.03;;;-1.35;100.00
20624;BME280;10471;42.736;23.346;2023-03-19T04:51:32;96143.69;;;-1.35;100.00
20624;BME280;10471;42.736;23.346;2023-03-19T04:53:57;96149.44;;;-1.33;100.00
20624;BME280;10471;42.736;23.346;2023-03-19T04:56:24;96142.53;;;-1.32;100.00
20624;BME280;10471;42.736;23.346;2023-03-19T04:58:49;96142.13;;;-1.30;100.00
20624;BME280;10471;42.736;23.346;2023-03-19T05:01:15;96140.97;;;-1.27;100.00
20624;BME280;10471;42.736;23.346;2023-03-19T05:03:41;96137.84;;;-1.23;100.00
20624;BME280;10471;42.736;23.346;2023-03-19T05:06:06;96144.06;;;-1.17;100.00
20624;BME280;10471;42.736;23.346;2023-03-19T05:08:32;96147.06;;;-1.14;100.00
20624;BME280;10471;42.736;23.346;2023-03-19T05:10:57;96144.34;;;-1.06;100.00
20624;BME280;10471;42.736;23.346;2023-03-19T05:13:23;96150.38;;;-0.99;100.00
20624;BME280;10471;42.736;23.346;2023-03-19T05:15:52;96147.31;;;-0.88;100.00
20624;BME280;10471;42.736;23.346;2023-03-19T05:18:18;96152.97;;;-0.78;100.00
20624;BME280;10471;42.736;23.346;2023-03-19T05:20:43;96146.66;;;-0.69;100.00
20624;BME280;10471;42.736;23.346;2023-03-19T05:23:09;96159.09;;;-0.58;100.00
20624;BME280;10471;42.736;23.346;2023-03-19T05:25:35;96151.22;;;-0.50;100.00
20624;BME280;10471;42.736;23.346;2023-03-19T05:28:01;96156.84;;;-0.40;100.00
20624;BME280;10471;42.736;23.346;2023-03-19T05:30:26;96151.75;;;-0.27;100.00
20624;BME280;10471;42.736;23.346;2023-03-19T05:32:52;96164.56;;;-0.19;100.00
20624;BME280;10471;42.736;23.346;2023-03-19T05:35:17;96162.44;;;-0.09;100.00
20624;BME280;10471;42.736;23.346;2023-03-19T05:37:43;96154.50;;;-0.02;100.00
20624;BME280;10471;42.736;23.346;2023-03-19T05:40:09;96162.72;;;0.08;100.00
20624;BME280;10471;42.736;23.346;2023-03-19T05:42:36;96157.00;;;0.19;100.00
20624;BME280;10471;42.736;23.346;2023-03-19T05:45:02;96156.47;;;0.30;100.00
20624;BME280;10471;42.736;23.346;2023-03-19T05:47:28;96165.66;;;0.39;100.00
20624;BME280;10471;42.736;23.346;2023-03-19T05:49:54;96157.34;;;0.50;100.00
20624;BME280;10471;42.736;23.346;2023-03-19T05:52:19;96157.19;;;0.58;100.00
20624;BME280;10471;42.736;23.346;2023-03-19T05:54:45;96167.00;;;0.69;100.00
20624;BME280;10471;42.736;23.346;2023-03-19T05:57:14;96171.38;;;0.68;100.00
20624;BME280;10471;42.736;23.346;2023-03-19T05:59:40;96167.03;;;0.82;100.00
20624;BME280;10471;42.736;23.346;2023-03-19T06:02:06;96159.28;;;0.95;100.00
20624;BME280;10471;42.736;23.346;2023-03-19T06:04:31;96156.50;;;1.03;100.00
20624;BME280;10471;42.736;23.346;2023-03-19T06:06:57;96150.31;;;1.04;100.00
20624;BME280;10471;42.736;23.346;2023-03-19T06:09:22;96150.34;;;1.17;100.00
20624;BME280;10471;42.736;23.346;2023-03-19T06:11:47;96155.13;;;1.26;100.00
20624;BME280;10471;42.736;23.346;2023-03-19T06:14:13;96149.16;;;1.32;100.00
20624;BME280;10471;42.736;23.346;2023-03-19T06:16:38;96154.34;;;1.45;100.00
20624;BME280;10471;42.736;23.346;2023-03-19T06:19:04;96153.56;;;1.57;100.00
20624;BME280;10471;42.736;23.346;2023-03-19T06:21:29;96159.94;;;1.68;100.00
20624;BME280;10471;42.736;23.346;2023-03-19T06:23:56;96156.13;;;1.77;100.00
20624;BME280;10471;42.736;23.346;2023-03-19T06:26:22;96160.69;;;1.88;100.00
20624;BME280;10471;42.736;23.346;2023-03-19T06:28:47;96159.09;;;1.99;100.00
20624;BME280;10471;42.736;23.346;2023-03-19T06:31:13;96158.06;;;2.07;100.00
20624;BME280;10471;42.736;23.346;2023-03-19T06:33:38;96161.03;;;2.17;100.00
20624;BME280;10471;42.736;23.346;2023-03-19T06:36:04;96165.19;;;2.31;100.00
20624;BME280;10471;42.736;23.346;2023-03-19T06:38:30;96164.19;;;2.45;100.00
20624;BME280;10471;42.736;23.346;2023-03-19T06:40:56;96168.31;;;2.58;100.00
20624;BME280;10471;42.736;23.346;2023-03-19T06:43:21;96170.88;;;2.71;100.00
20624;BME280;10471;42.736;23.346;2023-03-19T06:45:47;96172.44;;;2.72;100.00
20624;BME280;10471;42.736;23.346;2023-03-19T06:48:13;96178.69;;;2.71;100.00
20624;BME280;10471;42.736;23.346;2023-03-19T06:50:39;96181.81;;;2.86;100.00
20624;BME280;10471;42.736;23.346;2023-03-19T06:53:04;96177.13;;;3.01;100.00
20624;BME280;10471;42.736;23.346;2023-03-19T06:55:29;96177.50;;;3.05;100.00
20624;BME280;10471;42.736;23.346;2023-03-19T06:57:55;96183.81;;;3.22;100.00
20624;BME280;10471;42.736;23.346;2023-03-19T07:00:21;96188.50;;;3.37;100.00
20624;BME280;10471;42.736;23.346;2023-03-19T07:02:47;96187.66;;;3.50;100.00
20624;BME280;10471;42.736;23.346;2023-03-19T07:05:12;96192.31;;;3.66;100.00
20624;BME280;10471;42.736;23.346;2023-03-19T07:07:38;96182.19;;;3.82;100.00
20624;BME280;10471;42.736;23.346;2023-03-19T07:10:04;96177.13;;;3.87;100.00
20624;BME280;10471;42.736;23.346;2023-03-19T07:12:30;96179.25;;;3.96;100.00
20624;BME280;10471;42.736;23.346;2023-03-19T07:14:56;96184.34;;;4.09;100.00
20624;BME280;10471;42.736;23.346;2023-03-19T07:17:22;96184.94;;;4.11;100.00
20624;BME280;10471;42.736;23.346;2023-03-19T07:19:48;96189.84;;;4.19;100.00
20624;BME280;10471;42.736;23.346;2023-03-19T07:22:14;96193.72;;;4.35;100.00
20624;BME280;10471;42.736;23.346;2023-03-19T07:24:40;96190.75;;;4.49;100.00
20624;BME280;10471;42.736;23.346;2023-03-19T07:27:05;96188.00;;;4.62;100.00
20624;BME280;10471;42.736;23.346;2023-03-19T07:29:31;96177.94;;;4.65;100.00
20624;BME280;10471;42.736;23.346;2023-03-19T07:31:56;96175.22;;;4.54;100.00
20624;BME280;10471;42.736;23.346;2023-03-19T07:34:22;96178.28;;;4.69;100.00
20624;BME280;10471;42.736;23.346;2023-03-19T07:36:48;96176.66;;;4.86;100.00
20624;BME280;10471;42.736;23.346;2023-03-19T07:39:13;96183.75;;;4.97;100.00
20624;BME280;10471;42.736;23.346;2023-03-19T07:41:38;96168.81;;;5.04;100.00
20624;BME280;10471;42.736;23.346;2023-03-19T07:44:05;96170.97;;;5.07;100.00
20624;BME280;10471;42.736;23.346;2023-03-19T07:46:30;96176.69;;;5.15;100.00
20624;BME280;10471;42.736;23.346;2023-03-19T07:48:56;96173.84;;;5.17;100.00
20624;BME280;10471;42.736;23.346;2023-03-19T07:51:21;96175.19;;;5.08;100.00
20624;BME280;10471;42.736;23.346;2023-03-19T07:53:47;96179.06;;;5.17;100.00
20624;BME280;10471;42.736;23.346;2023-03-19T07:56:13;96174.09;;;5.26;100.00
20624;BME280;10471;42.736;23.346;2023-03-19T07:58:38;96180.94;;;5.27;100.00
20624;BME280;10471;42.736;23.346;2023-03-19T08:01:04;96183.41;;;5.22;100.00
20624;BME280;10471;42.736;23.346;2023-03-19T08:03:29;96176.41;;;5.34;100.00
20624;BME280;10471;42.736;23.346;2023-03-19T08:05:54;96169.31;;;5.53;100.00
20624;BME280;10471;42.736;23.346;2023-03-19T08:08:20;96165.94;;;5.75;100.00
20624;BME280;10471;42.736;23.346;2023-03-19T08:10:45;96172.19;;;5.74;100.00
20624;BME280;10471;42.736;23.346;2023-03-19T08:13:12;96163.84;;;5.54;100.00
20624;BME280;10471;42.736;23.346;2023-03-19T08:15:38;96164.50;;;5.79;100.00
20624;BME280;10471;42.736;23.346;2023-03-19T08:18:04;96170.53;;;6.02;100.00
20624;BME280;10471;42.736;23.346;2023-03-19T08:20:30;96163.38;;;6.21;100.00
20624;BME280;10471;42.736;23.346;2023-03-19T08:22:56;96163.16;;;6.11;96.37
20624;BME280;10471;42.736;23.346;2023-03-19T08:25:23;96164.06;;;6.05;97.70
20624;BME280;10471;42.736;23.346;2023-03-19T08:27:50;96160.41;;;6.06;98.14
20624;BME280;10471;42.736;23.346;2023-03-19T08:30:15;96157.69;;;6.12;94.58
20624;BME280;10471;42.736;23.346;2023-03-19T08:32:41;96165.06;;;6.27;89.98
20624;BME280;10471;42.736;23.346;2023-03-19T08:35:09;96171.34;;;6.37;88.98
20624;BME280;10471;42.736;23.346;2023-03-19T08:37:35;96152.19;;;6.59;91.09
20624;BME280;10471;42.736;23.346;2023-03-19T08:40:01;96154.09;;;6.75;88.01
20624;BME280;10471;42.736;23.346;2023-03-19T08:42:27;96145.03;;;6.94;85.15
20624;BME280;10471;42.736;23.346;2023-03-19T08:44:53;96147.16;;;7.09;84.71
20624;BME280;10471;42.736;23.346;2023-03-19T08:47:18;96144.78;;;7.23;85.38
20624;BME280;10471;42.736;23.346;2023-03-19T08:49:48;96141.16;;;7.41;83.38
20624;BME280;10471;42.736;23.346;2023-03-19T08:52:13;96140.22;;;7.47;78.17
20624;BME280;10471;42.736;23.346;2023-03-19T08:54:39;96130.00;;;7.62;74.44
20624;BME280;10471;42.736;23.346;2023-03-19T08:57:04;96119.13;;;7.70;74.77
20624;BME280;10471;42.736;23.346;2023-03-19T08:59:30;96126.72;;;7.87;72.88
20624;BME280;10471;42.736;23.346;2023-03-19T09:01:55;96113.88;;;7.70;69.25
20624;BME280;10471;42.736;23.346;2023-03-19T09:04:21;96120.69;;;7.71;66.71
20624;BME280;10471;42.736;23.346;2023-03-19T09:06:47;96119.88;;;7.86;64.21
20624;BME280;10471;42.736;23.346;2023-03-19T09:09:19;96110.69;;;8.00;67.35
20624;BME280;10471;42.736;23.346;2023-03-19T09:11:46;96110.03;;;8.26;66.83
20624;BME280;10471;42.736;23.346;2023-03-19T09:14:12;96110.03;;;8.48;58.35
20624;BME280;10471;42.736;23.346;2023-03-19T09:16:38;96103.25;;;8.51;58.55
20624;BME280;10471;42.736;23.346;2023-03-19T09:19:04;96104.59;;;8.54;59.01
20624;BME280;10471;42.736;23.346;2023-03-19T09:21:31;96094.88;;;8.76;61.18
20624;BME280;10471;42.736;23.346;2023-03-19T09:23:56;96096.69;;;8.97;58.65
20624;BME280;10471;42.736;23.346;2023-03-19T09:26:21;96097.31;;;9.04;53.45
20624;BME280;10471;42.736;23.346;2023-03-19T09:28:47;96092.94;;;9.14;53.00
20624;BME280;10471;42.736;23.346;2023-03-19T09:31:12;96097.59;;;9.33;55.06
20624;BME280;10471;42.736;23.346;2023-03-19T09:33:38;96095.31;;;9.42;57.27
20624;BME280;10471;42.736;23.346;2023-03-19T09:36:03;96085.63;;;9.47;55.81
20624;BME280;10471;42.736;23.346;2023-03-19T09:38:29;96089.94;;;9.58;54.65
20624;BME280;10471;42.736;23.346;2023-03-19T09:41:26;96071.69;;;9.83;52.47
20624;BME280;10471;42.736;23.346;2023-03-19T09:46:31;96078.63;;;9.94;52.25
20624;BME280;10471;42.736;23.346;2023-03-19T09:49:11;96081.59;;;10.02;48.64
20624;BME280;10471;42.736;23.346;2023-03-19T09:51:52;96074.53;;;10.08;47.23
20624;BME280;10471;42.736;23.346;2023-03-19T09:54:38;96076.22;;;10.24;49.92
20624;BME280;10471;42.736;23.346;2023-03-19T09:57:08;96077.91;;;10.40;48.31
20624;BME280;10471;42.736;23.346;2023-03-19T09:59:34;96063.47;;;10.52;49.71
20624;BME280;10471;42.736;23.346;2023-03-19T10:02:38;96064.88;;;10.79;47.48
20624;BME280;10471;42.736;23.346;2023-03-19T10:07:44;96052.19;;;10.76;46.37
20624;BME280;10471;42.736;23.346;2023-03-19T10:13:35;96049.41;;;11.27;48.14
20624;BME280;10471;42.736;23.346;2023-03-19T10:16:04;96044.91;;;11.28;45.88
20624;BME280;10471;42.736;23.346;2023-03-19T10:18:34;96040.44;;;11.28;46.06
20624;BME280;10471;42.736;23.346;2023-03-19T10:21:23;96041.22;;;11.34;45.33
20624;BME280;10471;42.736;23.346;2023-03-19T10:26:31;96035.47;;;11.62;45.30
20624;BME280;10471;42.736;23.346;2023-03-19T10:29:08;96030.44;;;11.80;45.27
20624;BME280;10471;42.736;23.346;2023-03-19T10:34:41;96013.78;;;11.99;44.28
20624;BME280;10471;42.736;23.346;2023-03-19T10:37:22;96004.78;;;12.15;45.53
20624;BME280;10471;42.736;23.346;2023-03-19T10:39:52;95999.41;;;12.35;45.19
20624;BME280;10471;42.736;23.346;2023-03-19T10:45:30;95988.19;;;12.58;44.15
20624;BME280;10471;42.736;23.346;2023-03-19T10:47:58;95991.94;;;12.47;43.25
20624;BME280;10471;42.736;23.346;2023-03-19T10:50:31;95983.41;;;12.65;42.77
20624;BME280;10471;42.736;23.346;2023-03-19T10:53:06;95965.84;;;12.84;42.67
20624;BME280;10471;42.736;23.346;2023-03-19T10:55:32;95963.06;;;13.09;42.03
20624;BME280;10471;42.736;23.346;2023-03-19T10:58:14;95961.91;;;13.24;41.81
20624;BME280;10471;42.736;23.346;2023-03-19T11:00:40;95957.72;;;13.47;41.89
20624;BME280;10471;42.736;23.346;2023-03-19T11:03:35;95952.97;;;13.72;42.11
20624;BME280;10471;42.736;23.346;2023-03-19T11:08:29;95935.41;;;14.09;41.08
20624;BME280;10471;42.736;23.346;2023-03-19T11:10:54;95943.56;;;14.36;41.22
20624;BME280;10471;42.736;23.346;2023-03-19T11:13:24;95932.75;;;14.51;40.61
20624;BME280;10471;42.736;23.346;2023-03-19T11:15:52;95926.53;;;14.79;41.54
20624;BME280;10471;42.736;23.346;2023-03-19T11:18:24;95925.16;;;14.81;39.29
20624;BME280;10471;42.736;23.346;2023-03-19T11:20:57;95930.06;;;14.93;38.74
20624;BME280;10471;42.736;23.346;2023-03-19T11:23:27;95922.41;;;15.05;38.60
20624;BME280;10471;42.736;23.346;2023-03-19T11:25:54;95917.63;;;15.25;38.23
20624;BME280;10471;42.736;23.346;2023-03-19T11:28:22;95916.16;;;15.32;38.50
20624;BME280;10471;42.736;23.346;2023-03-19T11:37:06;95901.09;;;15.60;37.29
20624;BME280;10471;42.736;23.346;2023-03-19T11:39:26;95890.59;;;15.36;37.31
20624;BME280;10471;42.736;23.346;2023-03-19T11:45:04;95879.25;;;15.89;37.53
20624;BME280;10471;42.736;23.346;2023-03-19T11:50:32;95865.59;;;16.58;36.59
20624;BME280;10471;42.736;23.346;2023-03-19T11:55:46;95859.91;;;17.08;36.63
20624;BME280;10471;42.736;23.346;2023-03-19T12:00:52;95848.72;;;17.41;35.53
20624;BME280;10471;42.736;23.346;2023-03-19T12:08:30;95844.81;;;16.60;36.30
20624;BME280;10471;42.736;23.346;2023-03-19T12:14:09;95836.31;;;16.93;36.78
20624;BME280;10471;42.736;23.346;2023-03-19T12:27:46;95828.19;;;16.76;35.86
20624;BME280;10471;42.736;23.346;2023-03-19T12:30:31;95818.78;;;17.22;34.93
20624;BME280;10471;42.736;23.346;2023-03-19T12:35:49;95816.72;;;17.41;35.41
20624;BME280;10471;42.736;23.346;2023-03-19T12:38:37;95810.19;;;17.47;35.32
20624;BME280;10471;42.736;23.346;2023-03-19T12:41:10;95810.94;;;17.48;35.36
20624;BME280;10471;42.736;23.346;2023-03-19T12:46:35;95808.31;;;17.95;35.69
20624;BME280;10471;42.736;23.346;2023-03-19T12:51:44;95804.41;;;18.01;35.25
20624;BME280;10471;42.736;23.346;2023-03-19T12:54:12;95800.72;;;18.27;34.95
20624;BME280;10471;42.736;23.346;2023-03-19T12:56:40;95793.34;;;18.49;34.11
20624;BME280;10471;42.736;23.346;2023-03-19T12:59:31;95796.19;;;18.61;34.17
20624;BME280;10471;42.736;23.346;2023-03-19T13:08:20;95777.19;;;18.71;33.92
20624;BME280;10471;42.736;23.346;2023-03-19T13:10:48;95784.09;;;18.89;33.99
20624;BME280;10471;42.736;23.346;2023-03-19T13:13:32;95780.59;;;19.14;32.76
20624;BME280;10471;42.736;23.346;2023-03-19T13:16:33;95770.41;;;18.91;32.79
20624;BME280;10471;42.736;23.346;2023-03-19T13:19:17;95772.59;;;18.97;32.62
20624;BME280;10471;42.736;23.346;2023-03-19T13:21:49;95766.59;;;19.17;33.56
20624;BME280;10471;42.736;23.346;2023-03-19T13:26:42;95764.22;;;19.61;33.18
20624;BME280;10471;42.736;23.346;2023-03-19T13:32:49;95752.38;;;19.42;33.34
20624;BME280;10471;42.736;23.346;2023-03-19T13:38:23;95749.63;;;19.59;32.90
20624;BME280;10471;42.736;23.346;2023-03-19T13:40:55;95750.53;;;19.63;32.13
20624;BME280;10471;42.736;23.346;2023-03-19T13:56:18;95731.69;;;20.17;31.74
20624;BME280;10471;42.736;23.346;2023-03-19T13:58:51;95729.13;;;20.00;32.23
20624;BME280;10471;42.736;23.346;2023-03-19T14:03:53;95734.25;;;20.13;32.96
20624;BME280;10471;42.736;23.346;2023-03-19T14:06:35;95728.88;;;20.13;32.10
20624;BME280;10471;42.736;23.346;2023-03-19T14:09:04;95729.13;;;19.63;32.06
20624;BME280;10471;42.736;23.346;2023-03-19T14:11:33;95719.56;;;19.62;32.29
20624;BME280;10471;42.736;23.346;2023-03-19T14:14:06;95721.50;;;19.81;32.52
20624;BME280;10471;42.736;23.346;2023-03-19T14:16:41;95712.03;;;19.92;32.22
20624;BME280;10471;42.736;23.346;2023-03-19T14:19:16;95713.47;;;20.10;32.58
20624;BME280;10471;42.736;23.346;2023-03-19T14:22:06;95716.06;;;19.98;32.87
20624;BME280;10471;42.736;23.346;2023-03-19T14:24:37;95717.97;;;20.18;31.93
20624;BME280;10471;42.736;23.346;2023-03-19T14:27:28;95714.56;;;20.09;32.08